createdAt,value
2023-05-02T00:01:34.848Z,100350.63
2023-05-02T00:04:02.766Z,100352.34
2023-05-02T00:06:32.620Z,100347.16
2023-05-02T00:09:00.536Z,100358.44
2023-05-02T00:11:28.055Z,100365.41
2023-05-02T00:13:55.692Z,100360.22
2023-05-02T00:16:23.147Z,100358.53
2023-05-02T00:18:50.312Z,100367.25
2023-05-02T00:21:17.768Z,100356.84
2023-05-02T00:23:44.909Z,100361.22
2023-05-02T00:26:12.236Z,100367.31
2023-05-02T00:28:42.609Z,100365.56
2023-05-02T00:31:10.644Z,100362.09
2023-05-02T00:33:37.989Z,100366.41
2023-05-02T00:36:06.672Z,100372.53
2023-05-02T00:38:33.962Z,100374.22
2023-05-02T00:41:01.594Z,100375.97
2023-05-02T00:43:32.048Z,100375.09
2023-05-02T00:46:00.098Z,100378.56
2023-05-02T00:48:28.554Z,100380.28
2023-05-02T00:50:57.594Z,100381.13
2023-05-02T00:53:24.965Z,100383.75
2023-05-02T00:55:54.488Z,100381.91
2023-05-02T00:58:21.965Z,100387.09
2023-05-02T01:00:55.294Z,100392.31
2023-05-02T01:03:50.562Z,100394.94
2023-05-02T01:06:42.286Z,100388.84
2023-05-02T01:09:34.599Z,100402.72
2023-05-02T01:12:24.198Z,100399.19
2023-05-02T01:14:57.317Z,100401.69
2023-05-02T01:17:32.945Z,100399.03
2023-05-02T01:20:05.579Z,100397.28
2023-05-02T01:22:34.026Z,100405.09
2023-05-02T01:25:27.016Z,100412.00
2023-05-02T01:27:54.372Z,100407.66
2023-05-02T01:30:23.172Z,100412.84
2023-05-02T01:32:53.051Z,100410.25
2023-05-02T01:35:23.462Z,100405.03
2023-05-02T01:37:53.682Z,100402.41
2023-05-02T01:40:22.875Z,100401.47
2023-05-02T01:42:52.498Z,100412.75
2023-05-02T01:45:21.816Z,100408.34
2023-05-02T01:47:51.628Z,100413.59
2023-05-02T01:50:24.672Z,100412.72
2023-05-02T01:52:54.431Z,100415.25
2023-05-02T01:55:22.511Z,100410.03
2023-05-02T01:57:53.846Z,100408.31
2023-05-02T02:00:23.722Z,100415.28
2023-05-02T02:02:53.968Z,100407.50
2023-05-02T02:05:24.625Z,100410.16
2023-05-02T02:07:52.110Z,100401.47
2023-05-02T02:10:19.675Z,100411.88
2023-05-02T02:12:54.719Z,100407.56
2023-05-02T02:15:28.816Z,100419.72
2023-05-02T02:18:05.866Z,100410.06
2023-05-02T02:20:35.221Z,100408.31
2023-05-02T02:23:08.674Z,100408.31
2023-05-02T02:25:37.080Z,100410.91
2023-05-02T02:28:04.789Z,100406.56
2023-05-02T02:30:32.673Z,100403.09
2023-05-02T02:33:00.456Z,100397.03
2023-05-02T02:35:34.874Z,100407.41
2023-05-02T02:38:24.995Z,100410.94
2023-05-02T02:41:06.946Z,100410.16
2023-05-02T02:43:46.517Z,100412.81
2023-05-02T02:46:39.649Z,100416.34
2023-05-02T02:49:39.112Z,100419.88
2023-05-02T02:52:12.381Z,100425.22
2023-05-02T02:54:50.621Z,100431.41
2023-05-02T02:57:22.558Z,100424.59
2023-05-02T03:00:12.274Z,100424.81
2023-05-02T03:02:43.406Z,100413.63
2023-05-02T03:05:11.756Z,100418.00
2023-05-02T03:07:39.216Z,100422.28
2023-05-02T03:10:07.382Z,100419.47
2023-05-02T03:12:36.656Z,100419.16
2023-05-02T03:15:32.628Z,100426.59
2023-05-02T03:18:01.016Z,100426.84
2023-05-02T03:20:28.412Z,100426.78
2023-05-02T03:22:56.246Z,100430.81
2023-05-02T03:25:24.225Z,100419.97
2023-05-02T03:27:52.018Z,100416.34
2023-05-02T03:30:20.341Z,100408.88
2023-05-02T03:32:47.859Z,100413.34
2023-05-02T03:35:15.704Z,100414.78
2023-05-02T03:37:46.122Z,100406.28
2023-05-02T03:40:13.607Z,100406.47
2023-05-02T03:42:42.883Z,100409.94
2023-05-02T03:45:22.240Z,100408.91
2023-05-02T03:47:52.113Z,100408.78
2023-05-02T03:50:19.404Z,100407.81
2023-05-02T03:52:49.182Z,100407.09
2023-05-02T03:55:21.752Z,100406.19
2023-05-02T03:57:49.870Z,100404.88
2023-05-02T04:00:18.514Z,100409.88
2023-05-02T04:02:52.900Z,100409.38
2023-05-02T04:05:23.750Z,100408.41
2023-05-02T04:07:51.453Z,100411.97
2023-05-02T04:10:19.129Z,100415.38
2023-05-02T04:12:53.199Z,100423.34
2023-05-02T04:15:21.458Z,100419.19
2023-05-02T04:17:50.913Z,100425.41
2023-05-02T04:20:18.833Z,100420.47
2023-05-02T04:22:50.466Z,100425.06
2023-05-02T04:25:18.157Z,100431.31
2023-05-02T04:27:46.360Z,100433.34
2023-05-02T04:30:17.012Z,100438.72
2023-05-02T04:32:51.368Z,100442.59
2023-05-02T04:35:19.177Z,100435.94
2023-05-02T04:37:47.713Z,100440.66
2023-05-02T04:40:16.944Z,100445.28
2023-05-02T04:42:47.150Z,100441.94
2023-05-02T04:45:18.116Z,100444.19
2023-05-02T04:47:46.756Z,100447.53
2023-05-02T04:50:14.494Z,100449.03
2023-05-02T04:52:42.106Z,100447.75
2023-05-02T04:55:09.801Z,100437.81
2023-05-02T04:57:40.070Z,100441.44
2023-05-02T05:00:10.558Z,100450.22
2023-05-02T05:02:39.839Z,100446.25
2023-05-02T05:05:08.328Z,100451.78
2023-05-02T05:07:35.942Z,100448.06
2023-05-02T05:10:04.119Z,100446.13
2023-05-02T05:12:40.016Z,100449.56
2023-05-02T05:15:08.440Z,100449.66
2023-05-02T05:17:36.606Z,100451.34
2023-05-02T05:20:06.089Z,100449.66
2023-05-02T05:22:41.799Z,100451.22
2023-05-02T05:25:11.532Z,100451.91
2023-05-02T05:27:39.901Z,100456.06
2023-05-02T05:30:12.184Z,100453.88
2023-05-02T05:32:41.038Z,100439.50
2023-05-02T05:35:09.345Z,100445.72
2023-05-02T05:37:39.924Z,100446.56
2023-05-02T05:40:10.924Z,100447.81
2023-05-02T05:42:39.876Z,100444.31
2023-05-02T05:45:12.973Z,100442.97
2023-05-02T05:47:40.761Z,100450.19
2023-05-02T05:50:09.045Z,100449.03
2023-05-02T05:52:37.984Z,100443.88
2023-05-02T05:55:05.985Z,100455.69
2023-05-02T05:57:33.800Z,100459.16
2023-05-02T06:00:01.824Z,100454.91
2023-05-02T06:02:33.411Z,100457.84
2023-05-02T06:05:01.599Z,100457.06
2023-05-02T06:07:30.043Z,100459.38
2023-05-02T06:09:57.695Z,100446.69
2023-05-02T06:12:25.869Z,100448.28
2023-05-02T06:14:53.272Z,100446.13
2023-05-02T06:17:22.514Z,100456.09
2023-05-02T06:19:50.504Z,100451.31
2023-05-02T06:22:17.904Z,100456.91
2023-05-02T06:24:45.435Z,100446.03
2023-05-02T06:27:12.894Z,100450.91
2023-05-02T06:29:40.204Z,100448.50
2023-05-02T06:32:07.768Z,100437.06
2023-05-02T06:34:35.478Z,100445.25
2023-05-02T06:37:03.266Z,100438.81
2023-05-02T06:39:30.403Z,100450.25
2023-05-02T06:42:01.038Z,100437.78
2023-05-02T06:44:29.816Z,100442.69
2023-05-02T06:46:57.330Z,100450.81
2023-05-02T06:49:24.834Z,100445.75
2023-05-02T06:51:52.233Z,100459.28
2023-05-02T06:54:19.705Z,100436.38
2023-05-02T06:56:47.245Z,100437.72
2023-05-02T06:59:17.035Z,100442.75
2023-05-02T07:01:45.186Z,100450.19
2023-05-02T07:04:13.015Z,100451.69
2023-05-02T07:06:40.836Z,100443.56
2023-05-02T07:09:08.432Z,100443.06
2023-05-02T07:11:35.918Z,100443.31
2023-05-02T07:14:03.313Z,100436.75
2023-05-02T07:16:31.077Z,100444.84
2023-05-02T07:18:58.229Z,100434.88
2023-05-02T07:21:25.942Z,100445.44
2023-05-02T07:23:53.416Z,100443.78
2023-05-02T07:26:21.527Z,100446.28
2023-05-02T07:28:49.124Z,100445.91
2023-05-02T07:31:18.830Z,100452.47
2023-05-02T07:33:46.293Z,100442.47
2023-05-02T07:36:13.830Z,100442.09
2023-05-02T07:38:41.127Z,100440.88
2023-05-02T07:41:08.452Z,100450.59
2023-05-02T07:43:35.824Z,100447.00
2023-05-02T07:46:07.038Z,100445.34
2023-05-02T07:48:35.694Z,100447.75
2023-05-02T07:51:10.743Z,100441.03
2023-05-02T07:53:38.299Z,100444.16
2023-05-02T07:56:07.194Z,100453.53
2023-05-02T07:58:37.609Z,100450.47
2023-05-02T08:01:05.422Z,100456.00
2023-05-02T08:03:32.701Z,100462.72
2023-05-02T08:06:00.042Z,100458.97
2023-05-02T08:08:27.451Z,100454.66
2023-05-02T08:10:54.681Z,100450.91
2023-05-02T08:13:22.097Z,100451.19
2023-05-02T08:15:49.736Z,100444.59
2023-05-02T08:18:17.491Z,100440.00
2023-05-02T08:20:45.276Z,100429.69
2023-05-02T08:23:12.897Z,100427.03
2023-05-02T08:25:40.684Z,100422.81
2023-05-02T08:28:08.028Z,100434.31
2023-05-02T08:30:35.552Z,100425.31
2023-05-02T08:33:03.131Z,100423.09
2023-05-02T08:35:30.748Z,100421.50
2023-05-02T08:37:58.210Z,100424.34
2023-05-02T08:40:40.809Z,100416.97
2023-05-02T08:43:08.905Z,100421.69
2023-05-02T08:45:41.296Z,100413.31
2023-05-02T08:48:12.734Z,100420.88
2023-05-02T08:50:42.776Z,100409.31
2023-05-02T08:53:11.934Z,100409.28
2023-05-02T08:55:41.106Z,100401.81
2023-05-02T08:58:11.170Z,100398.03
2023-05-02T09:00:42.970Z,100406.28
2023-05-02T09:03:33.344Z,100393.53
2023-05-02T09:06:16.277Z,100396.66
2023-05-02T09:08:45.395Z,100402.09
2023-05-02T09:11:13.753Z,100387.09
2023-05-02T09:13:43.487Z,100396.69
2023-05-02T09:16:13.488Z,100382.25
2023-05-02T09:18:49.561Z,100385.75
2023-05-02T09:21:26.246Z,100378.44
2023-05-02T09:23:56.069Z,100375.97
2023-05-02T09:26:24.135Z,100373.84
2023-05-02T09:28:53.571Z,100376.25
2023-05-02T09:31:54.099Z,100368.47
2023-05-02T09:34:22.694Z,100370.94
2023-05-02T09:36:52.391Z,100371.00
2023-05-02T09:39:26.397Z,100376.81
2023-05-02T09:41:54.802Z,100372.94
2023-05-02T09:44:27.910Z,100365.72
2023-05-02T09:46:57.808Z,100368.22
2023-05-02T09:49:40.586Z,100372.03
2023-05-02T09:52:15.610Z,100349.38
2023-05-02T09:54:43.497Z,100358.75
2023-05-02T09:57:11.612Z,100355.88
2023-05-02T09:59:42.356Z,100372.00
2023-05-02T10:02:12.050Z,100356.97
2023-05-02T10:04:40.161Z,100369.06
2023-05-02T10:07:10.922Z,100356.41
2023-05-02T10:09:44.766Z,100363.09
2023-05-02T10:12:15.708Z,100362.59
2023-05-02T10:14:50.221Z,100351.06
2023-05-02T10:17:31.209Z,100351.50
2023-05-02T10:20:04.178Z,100338.59
2023-05-02T10:22:32.089Z,100347.41
2023-05-02T10:25:01.453Z,100348.16
2023-05-02T10:27:31.225Z,100336.13
2023-05-02T10:30:04.638Z,100345.94
2023-05-02T10:32:34.220Z,100339.13
2023-05-02T10:35:06.488Z,100336.34
2023-05-02T10:37:36.756Z,100335.63
2023-05-02T10:40:06.220Z,100329.22
2023-05-02T10:42:40.792Z,100331.13
2023-05-02T10:45:30.267Z,100334.72
2023-05-02T10:48:21.044Z,100336.25
2023-05-02T10:50:51.889Z,100328.63
2023-05-02T10:53:36.718Z,100323.19
2023-05-02T10:56:16.804Z,100323.25
2023-05-02T10:58:46.354Z,100330.03
2023-05-02T11:01:28.810Z,100327.75
2023-05-02T11:04:22.999Z,100322.13
2023-05-02T11:07:05.439Z,100325.88
2023-05-02T11:09:33.577Z,100309.66
2023-05-02T11:12:02.579Z,100316.16
2023-05-02T11:14:38.881Z,100312.16
2023-05-02T11:17:07.737Z,100305.09
2023-05-02T11:19:43.897Z,100318.03
2023-05-02T11:22:27.440Z,100298.63
2023-05-02T11:24:55.244Z,100318.09
2023-05-02T11:27:32.287Z,100320.22
2023-05-02T11:30:10.555Z,100310.97
2023-05-02T11:32:50.246Z,100312.09
2023-05-02T11:35:22.753Z,100306.31
2023-05-02T11:38:07.463Z,100292.84
2023-05-02T11:40:34.803Z,100293.25
2023-05-02T11:43:16.429Z,100302.50
2023-05-02T11:45:44.264Z,100295.81
2023-05-02T11:48:18.265Z,100289.75
2023-05-02T11:50:50.519Z,100282.34
2023-05-02T11:53:23.754Z,100283.63
2023-05-02T11:55:56.814Z,100285.09
2023-05-02T11:58:26.487Z,100280.19
2023-05-02T12:00:53.944Z,100292.19
2023-05-02T12:03:25.854Z,100292.44
2023-05-02T12:05:54.259Z,100287.59
2023-05-02T12:08:26.724Z,100284.06
2023-05-02T12:10:55.776Z,100288.72
2023-05-02T12:13:27.208Z,100267.13
2023-05-02T12:15:55.263Z,100267.59
2023-05-02T12:18:24.858Z,100266.13
2023-05-02T12:20:53.336Z,100270.94
2023-05-02T12:23:22.276Z,100267.69
2023-05-02T12:25:49.546Z,100268.31
2023-05-02T12:28:20.767Z,100266.81
2023-05-02T12:30:50.071Z,100270.63
2023-05-02T12:33:18.103Z,100275.94
2023-05-02T12:35:49.234Z,100263.97
2023-05-02T12:38:19.004Z,100264.28
2023-05-02T12:40:58.979Z,100262.06
2023-05-02T12:43:26.411Z,100260.72
2023-05-02T12:46:10.369Z,100264.28
2023-05-02T12:48:37.746Z,100256.63
2023-05-02T12:51:05.659Z,100247.91
2023-05-02T12:53:40.704Z,100243.72
2023-05-02T12:56:08.611Z,100245.63
2023-05-02T12:58:43.419Z,100246.69
2023-05-02T13:01:11.044Z,100246.09
2023-05-02T13:03:38.797Z,100251.88
2023-05-02T13:06:06.508Z,100234.28
2023-05-02T13:08:35.110Z,100246.44
2023-05-02T13:11:05.560Z,100241.25
2023-05-02T13:13:33.728Z,100242.56
2023-05-02T13:16:01.621Z,100236.91
2023-05-02T13:18:29.103Z,100233.50
2023-05-02T13:20:56.595Z,100239.00
2023-05-02T13:23:24.272Z,100234.88
2023-05-02T13:25:52.133Z,100223.88
2023-05-02T13:28:19.735Z,100234.94
2023-05-02T13:30:46.975Z,100235.25
2023-05-02T13:33:14.769Z,100232.22
2023-05-02T13:35:42.179Z,100219.47
2023-05-02T13:38:09.995Z,100220.06
2023-05-02T13:40:37.814Z,100221.44
2023-05-02T13:43:05.414Z,100222.91
2023-05-02T13:45:33.682Z,100217.91
2023-05-02T13:48:01.394Z,100225.72
2023-05-02T13:50:28.473Z,100219.66
2023-05-02T13:52:56.183Z,100216.78
2023-05-02T13:55:23.566Z,100217.28
2023-05-02T13:57:51.196Z,100212.13
2023-05-02T14:00:18.579Z,100213.22
2023-05-02T14:02:48.869Z,100201.66
2023-05-02T14:05:16.463Z,100200.41
2023-05-02T14:07:44.208Z,100201.41
2023-05-02T14:10:11.943Z,100198.44
2023-05-02T14:12:39.083Z,100199.00
2023-05-02T14:15:07.039Z,100203.69
2023-05-02T14:17:34.711Z,100191.88
2023-05-02T14:20:02.507Z,100190.28
2023-05-02T14:22:30.077Z,100195.13
2023-05-02T14:24:57.442Z,100183.38
2023-05-02T14:27:26.077Z,100197.78
2023-05-02T14:29:53.676Z,100194.03
2023-05-02T14:32:21.934Z,100182.00
2023-05-02T14:34:49.857Z,100191.56
2023-05-02T14:37:17.652Z,100187.56
2023-05-02T14:39:47.445Z,100181.41
2023-05-02T14:42:15.857Z,100185.13
2023-05-02T14:44:43.635Z,100188.69
2023-05-02T14:47:10.880Z,100188.72
2023-05-02T14:49:38.678Z,100185.31
2023-05-02T14:52:05.990Z,100175.50
2023-05-02T14:54:33.320Z,100179.59
2023-05-02T14:57:02.324Z,100180.59
2023-05-02T14:59:30.698Z,100181.94
2023-05-02T15:01:58.589Z,100172.19
2023-05-02T15:04:27.602Z,100165.44
2023-05-02T15:06:56.571Z,100163.50
2023-05-02T15:09:26.849Z,100172.63
2023-05-02T15:11:55.355Z,100172.63
2023-05-02T15:14:23.247Z,100166.84
2023-05-02T15:16:51.270Z,100167.91
2023-05-02T15:19:18.931Z,100161.94
2023-05-02T15:21:46.229Z,100161.16
2023-05-02T15:24:13.726Z,100162.59
2023-05-02T15:26:41.415Z,100162.28
2023-05-02T15:29:08.923Z,100158.34
2023-05-02T15:31:36.719Z,100165.38
2023-05-02T15:34:04.413Z,100155.22
2023-05-02T15:36:32.906Z,100158.72
2023-05-02T15:39:00.597Z,100145.75
2023-05-02T15:41:27.909Z,100149.84
2023-05-02T15:43:55.667Z,100153.53
2023-05-02T15:46:23.178Z,100146.19
2023-05-02T15:48:50.875Z,100153.97
2023-05-02T15:51:18.416Z,100151.63
2023-05-02T15:53:49.961Z,100140.91
2023-05-02T15:56:17.405Z,100152.00
2023-05-02T15:58:45.054Z,100135.47
2023-05-02T16:01:12.657Z,100145.66
2023-05-02T16:03:40.290Z,100142.34
2023-05-02T16:06:08.155Z,100134.97
2023-05-02T16:08:36.291Z,100142.78
2023-05-02T16:11:03.777Z,100130.28
2023-05-02T16:13:31.201Z,100125.97
2023-05-02T16:15:58.664Z,100130.81
2023-05-02T16:18:28.785Z,100131.44
2023-05-02T16:20:57.343Z,100131.47
2023-05-02T16:23:26.184Z,100136.91
2023-05-02T16:26:01.107Z,100130.13
2023-05-02T16:28:29.620Z,100128.47
2023-05-02T16:30:57.253Z,100132.72
2023-05-02T16:33:25.436Z,100134.44
2023-05-02T16:36:03.526Z,100134.28
2023-05-02T16:38:31.825Z,100140.22
2023-05-02T16:41:03.169Z,100145.50
2023-05-02T16:43:30.938Z,100142.91
2023-05-02T16:46:06.447Z,100139.53
2023-05-02T16:48:35.417Z,100134.88
2023-05-02T16:51:04.100Z,100136.66
2023-05-02T16:53:32.198Z,100138.44
2023-05-02T16:56:00.041Z,100138.28
2023-05-02T16:58:30.604Z,100130.31
2023-05-02T17:01:01.914Z,100130.25
2023-05-02T17:03:29.845Z,100132.19
2023-05-02T17:06:02.091Z,100135.63
2023-05-02T17:08:30.055Z,100134.44
2023-05-02T17:10:57.827Z,100136.00
2023-05-02T17:13:25.242Z,100135.72
2023-05-02T17:15:53.923Z,100141.56
2023-05-02T17:18:22.198Z,100143.66
2023-05-02T17:20:50.390Z,100142.44
2023-05-02T17:23:18.065Z,100148.25
2023-05-02T17:25:45.763Z,100148.84
2023-05-02T17:28:13.664Z,100139.53
2023-05-02T17:30:41.114Z,100144.38
2023-05-02T17:33:08.679Z,100144.00
2023-05-02T17:35:35.846Z,100146.13
2023-05-02T17:38:03.383Z,100156.41
2023-05-02T17:40:31.159Z,100148.88
2023-05-02T17:42:59.498Z,100157.16
2023-05-02T17:45:29.405Z,100159.28
2023-05-02T17:47:56.855Z,100170.31
2023-05-02T17:50:24.551Z,100163.66
2023-05-02T17:52:52.157Z,100175.22
2023-05-02T17:55:19.934Z,100167.47
2023-05-02T17:57:47.606Z,100177.25
2023-05-02T18:00:15.826Z,100178.44
2023-05-02T18:02:44.322Z,100168.03
2023-05-02T18:05:12.223Z,100181.41
2023-05-02T18:07:39.624Z,100174.81
2023-05-02T18:10:08.266Z,100174.03
2023-05-02T18:12:38.855Z,100174.09
2023-05-02T18:15:06.849Z,100181.28
2023-05-02T18:17:34.233Z,100176.91
2023-05-02T18:20:04.856Z,100176.91
2023-05-02T18:22:36.093Z,100176.19
2023-05-02T18:25:04.043Z,100175.56
2023-05-02T18:27:32.451Z,100173.97
2023-05-02T18:30:00.020Z,100169.00
2023-05-02T18:32:27.801Z,100169.94
2023-05-02T18:34:55.357Z,100180.88
2023-05-02T18:37:31.193Z,100178.47
2023-05-02T18:39:59.257Z,100171.72
2023-05-02T18:42:27.334Z,100179.91
2023-05-02T18:44:55.716Z,100184.50
2023-05-02T18:47:25.020Z,100175.94
2023-05-02T18:49:52.474Z,100178.72
2023-05-02T18:52:20.046Z,100170.13
2023-05-02T18:54:47.211Z,100181.88
2023-05-02T18:57:14.806Z,100175.84
2023-05-02T18:59:42.212Z,100175.13
2023-05-02T19:02:09.418Z,100181.53
2023-05-02T19:04:37.147Z,100185.34
2023-05-02T19:07:05.006Z,100188.19
2023-05-02T19:09:32.378Z,100185.69
2023-05-02T19:11:59.873Z,100185.94
2023-05-02T19:14:27.549Z,100182.63
2023-05-02T19:16:54.806Z,100185.53
2023-05-02T19:19:22.642Z,100191.00
2023-05-02T19:21:51.219Z,100186.78
2023-05-02T19:24:20.202Z,100187.81
2023-05-02T19:26:47.614Z,100186.25
2023-05-02T19:29:14.854Z,100186.31
2023-05-02T19:31:44.211Z,100192.47
2023-05-02T19:34:11.563Z,100188.97
2023-05-02T19:36:39.170Z,100185.41
2023-05-02T19:39:06.881Z,100182.09
2023-05-02T19:41:34.695Z,100182.28
2023-05-02T19:44:02.377Z,100171.03
2023-05-02T19:46:30.749Z,100175.41
2023-05-02T19:48:58.409Z,100175.59
2023-05-02T19:51:28.265Z,100178.25
2023-05-02T19:53:58.628Z,100179.34
2023-05-02T19:56:29.304Z,100183.06
2023-05-02T19:58:59.721Z,100177.03
2023-05-02T20:01:29.602Z,100180.66
2023-05-02T20:03:57.729Z,100183.44
2023-05-02T20:06:25.789Z,100183.56
2023-05-02T20:08:53.131Z,100173.97
2023-05-02T20:11:21.719Z,100177.59
2023-05-02T20:13:49.214Z,100168.84
2023-05-02T20:16:16.682Z,100175.06
2023-05-02T20:18:43.969Z,100176.91
2023-05-02T20:21:11.484Z,100180.59
2023-05-02T20:23:43.753Z,100186.25
2023-05-02T20:26:11.695Z,100181.28
2023-05-02T20:28:38.952Z,100181.47
2023-05-02T20:31:06.337Z,100174.59
2023-05-02T20:33:44.461Z,100176.38
2023-05-02T20:36:15.238Z,100173.00
2023-05-02T20:38:43.124Z,100173.97
2023-05-02T20:41:14.297Z,100170.34
2023-05-02T20:43:45.205Z,100169.34
2023-05-02T20:46:16.536Z,100173.50
2023-05-02T20:48:44.520Z,100164.50
2023-05-02T20:51:11.784Z,100177.38
2023-05-02T20:53:40.656Z,100170.22
2023-05-02T20:56:08.035Z,100173.44
2023-05-02T20:58:35.190Z,100171.72
2023-05-02T21:01:03.095Z,100172.59
2023-05-02T21:03:30.618Z,100181.22
2023-05-02T21:06:01.019Z,100182.75
2023-05-02T21:08:28.692Z,100181.69
2023-05-02T21:10:56.215Z,100188.69
2023-05-02T21:13:23.535Z,100188.56
2023-05-02T21:15:51.378Z,100184.16
2023-05-02T21:18:19.073Z,100183.19
2023-05-02T21:20:49.218Z,100183.97
2023-05-02T21:23:16.601Z,100179.75
2023-05-02T21:25:44.010Z,100186.88
2023-05-02T21:28:12.914Z,100185.28
2023-05-02T21:30:40.488Z,100185.28
2023-05-02T21:33:07.805Z,100180.97
2023-05-02T21:35:35.392Z,100189.03
2023-05-02T21:38:02.903Z,100186.75
2023-05-02T21:40:32.158Z,100199.16
2023-05-02T21:42:59.666Z,100189.56
2023-05-02T21:45:27.119Z,100192.50
2023-05-02T21:47:54.457Z,100188.22
2023-05-02T21:50:22.038Z,100196.47
2023-05-02T21:52:49.962Z,100193.25
2023-05-02T21:55:17.464Z,100198.50
2023-05-02T21:57:45.039Z,100195.97
2023-05-02T22:00:13.413Z,100198.91
2023-05-02T22:02:42.173Z,100201.50
2023-05-02T22:05:09.926Z,100201.53
2023-05-02T22:07:38.075Z,100212.22
2023-05-02T22:10:06.853Z,100207.16
2023-05-02T22:12:34.411Z,100211.09
2023-05-02T22:15:07.862Z,100210.38
2023-05-02T22:17:36.169Z,100205.44
2023-05-02T22:20:03.936Z,100214.38
2023-05-02T22:22:31.641Z,100218.03
2023-05-02T22:24:58.940Z,100212.75
2023-05-02T22:27:26.929Z,100219.94
2023-05-02T22:29:54.405Z,100218.28
2023-05-02T22:32:23.014Z,100213.97
2023-05-02T22:34:50.570Z,100213.22
2023-05-02T22:37:18.114Z,100208.94
2023-05-02T22:39:46.057Z,100210.91
2023-05-02T22:42:13.317Z,100212.81
2023-05-02T22:44:53.121Z,100208.53
2023-05-02T22:47:22.072Z,100214.03
2023-05-02T22:49:49.709Z,100218.50
2023-05-02T22:52:18.562Z,100222.00
2023-05-02T22:54:46.176Z,100226.53
2023-05-02T22:57:13.596Z,100227.56
2023-05-02T22:59:41.054Z,100224.19
2023-05-02T23:02:11.470Z,100230.47
2023-05-02T23:04:39.177Z,100244.75
2023-05-02T23:07:06.694Z,100232.44
2023-05-02T23:09:33.993Z,100245.00
2023-05-02T23:12:02.806Z,100239.00
2023-05-02T23:14:30.163Z,100237.34
2023-05-02T23:16:57.696Z,100241.69
2023-05-02T23:19:26.170Z,100232.03
2023-05-02T23:21:53.614Z,100235.56
2023-05-02T23:24:21.184Z,100237.31
2023-05-02T23:26:48.445Z,100239.06
2023-05-02T23:29:16.272Z,100240.94
2023-05-02T23:31:44.238Z,100241.03
2023-05-02T23:34:12.621Z,100240.13
2023-05-02T23:36:40.152Z,100241.84
2023-05-02T23:39:08.012Z,100238.28
2023-05-02T23:41:35.634Z,100240.00
2023-05-02T23:44:03.645Z,100242.59
2023-05-02T23:46:30.951Z,100239.91
2023-05-02T23:48:58.473Z,100236.41
2023-05-02T23:51:26.114Z,100239.09
2023-05-02T23:53:53.576Z,100233.91
2023-05-02T23:56:21.252Z,100233.06
2023-05-02T23:58:48.834Z,100241.00
